In Rescue
 
Open Full Screen Window  High Contrast Mode
Wind Gusting 00 knots
18
May 13, 2021 9:48 AM CDT
Weather Information
Wind Direction
  190 °
Wind Speed
  18 kt (21 mph)
Wind Gust
  00 kt (0 mph)
Altimeter
30.33 in
Visibility
10 SM
Temperature
15° C
59° F
Dewpoint
00° C
32° F
Humidity
36%
1hr Rain Fall
00.00 in.
24hr Rain Fall
00.00 in.
Sky Condition
Scattered @ 10,000 ft
VFR

METAR KLYV 131448Z AUTO 19018KT 10SM SCT100 15/00 A3033 RMK AO2

FAA Disclaimer: The data displayed is for advisory purposes only and is not to be used for flight planning or operations.